sensor_id;sensor_type;location;lat;lon;timestamp;P1;durP1;ratioP1;P2;durP2;ratioP2
48727;SDS011;34527;45.618;5.130;2023-02-28T00:00:33;12.95;;;8.75;;
48727;SDS011;34527;45.618;5.130;2023-02-28T00:02:59;14.07;;;9.07;;
48727;SDS011;34527;45.618;5.130;2023-02-28T00:05:25;9.90;;;8.25;;
48727;SDS011;34527;45.618;5.130;2023-02-28T00:07:53;14.73;;;9.40;;
48727;SDS011;34527;45.618;5.130;2023-02-28T00:10:21;13.40;;;8.68;;
48727;SDS011;34527;45.618;5.130;2023-02-28T00:12:48;14.75;;;9.38;;
48727;SDS011;34527;45.618;5.130;2023-02-28T00:15:15;15.57;;;9.63;;
48727;SDS011;34527;45.618;5.130;2023-02-28T00:17:41;12.80;;;8.63;;
48727;SDS011;34527;45.618;5.130;2023-02-28T00:20:07;14.95;;;9.05;;
48727;SDS011;34527;45.618;5.130;2023-02-28T00:22:38;11.70;;;8.85;;
48727;SDS011;34527;45.618;5.130;2023-02-28T00:25:05;12.77;;;8.63;;
48727;SDS011;34527;45.618;5.130;2023-02-28T00:27:35;12.98;;;9.25;;
48727;SDS011;34527;45.618;5.130;2023-02-28T00:30:01;11.90;;;8.77;;
48727;SDS011;34527;45.618;5.130;2023-02-28T00:32:27;11.18;;;8.15;;
48727;SDS011;34527;45.618;5.130;2023-02-28T00:34:53;12.93;;;8.50;;
48727;SDS011;34527;45.618;5.130;2023-02-28T00:37:18;13.93;;;9.40;;
48727;SDS011;34527;45.618;5.130;2023-02-28T00:39:44;15.77;;;9.18;;
48727;SDS011;34527;45.618;5.130;2023-02-28T00:42:10;12.05;;;8.50;;
48727;SDS011;34527;45.618;5.130;2023-02-28T00:44:35;10.93;;;8.38;;
48727;SDS011;34527;45.618;5.130;2023-02-28T00:47:01;15.82;;;8.00;;
48727;SDS011;34527;45.618;5.130;2023-02-28T00:49:27;14.18;;;8.70;;
48727;SDS011;34527;45.618;5.130;2023-02-28T00:51:53;10.63;;;8.70;;
48727;SDS011;34527;45.618;5.130;2023-02-28T00:54:20;13.02;;;9.10;;
48727;SDS011;34527;45.618;5.130;2023-02-28T00:56:46;11.55;;;9.23;;
48727;SDS011;34527;45.618;5.130;2023-02-28T00:59:13;13.90;;;9.00;;
48727;SDS011;34527;45.618;5.130;2023-02-28T01:01:39;11.90;;;8.85;;
48727;SDS011;34527;45.618;5.130;2023-02-28T01:04:05;13.18;;;8.98;;
48727;SDS011;34527;45.618;5.130;2023-02-28T01:06:31;13.70;;;8.90;;
48727;SDS011;34527;45.618;5.130;2023-02-28T01:08:57;13.13;;;9.32;;
48727;SDS011;34527;45.618;5.130;2023-02-28T01:11:23;13.40;;;10.07;;
48727;SDS011;34527;45.618;5.130;2023-02-28T01:13:49;14.27;;;9.50;;
48727;SDS011;34527;45.618;5.130;2023-02-28T01:16:14;13.57;;;9.73;;
48727;SDS011;34527;45.618;5.130;2023-02-28T01:18:40;10.90;;;9.02;;
48727;SDS011;34527;45.618;5.130;2023-02-28T01:21:06;11.63;;;9.52;;
48727;SDS011;34527;45.618;5.130;2023-02-28T01:23:34;14.05;;;10.40;;
48727;SDS011;34527;45.618;5.130;2023-02-28T01:26:06;17.45;;;10.25;;
48727;SDS011;34527;45.618;5.130;2023-02-28T01:28:33;14.27;;;10.23;;
48727;SDS011;34527;45.618;5.130;2023-02-28T01:30:59;13.77;;;9.45;;
48727;SDS011;34527;45.618;5.130;2023-02-28T01:33:25;12.32;;;9.35;;
48727;SDS011;34527;45.618;5.130;2023-02-28T01:35:57;13.02;;;9.75;;
48727;SDS011;34527;45.618;5.130;2023-02-28T01:38:30;13.90;;;10.20;;
48727;SDS011;34527;45.618;5.130;2023-02-28T01:40:56;15.50;;;10.20;;
48727;SDS011;34527;45.618;5.130;2023-02-28T01:43:26;16.10;;;10.10;;
48727;SDS011;34527;45.618;5.130;2023-02-28T01:45:54;13.73;;;9.77;;
48727;SDS011;34527;45.618;5.130;2023-02-28T01:48:21;15.02;;;10.48;;
48727;SDS011;34527;45.618;5.130;2023-02-28T01:50:51;13.48;;;10.00;;
48727;SDS011;34527;45.618;5.130;2023-02-28T01:53:18;14.15;;;9.60;;
48727;SDS011;34527;45.618;5.130;2023-02-28T01:55:49;12.82;;;9.20;;
48727;SDS011;34527;45.618;5.130;2023-02-28T01:58:16;13.10;;;9.38;;
48727;SDS011;34527;45.618;5.130;2023-02-28T02:00:43;12.35;;;9.40;;
48727;SDS011;34527;45.618;5.130;2023-02-28T02:03:09;14.50;;;9.45;;
48727;SDS011;34527;45.618;5.130;2023-02-28T02:05:38;11.98;;;8.98;;
48727;SDS011;34527;45.618;5.130;2023-02-28T02:08:05;13.48;;;10.13;;
48727;SDS011;34527;45.618;5.130;2023-02-28T02:10:47;12.98;;;9.40;;
48727;SDS011;34527;45.618;5.130;2023-02-28T02:43:22;11.35;;;7.93;;
48727;SDS011;34527;45.618;5.130;2023-02-28T02:45:55;14.93;;;8.32;;
48727;SDS011;34527;45.618;5.130;2023-02-28T02:48:25;10.43;;;8.25;;
48727;SDS011;34527;45.618;5.130;2023-02-28T02:50:55;10.88;;;7.90;;
48727;SDS011;34527;45.618;5.130;2023-02-28T02:53:27;13.00;;;7.97;;
48727;SDS011;34527;45.618;5.130;2023-02-28T02:56:03;12.43;;;8.25;;
48727;SDS011;34527;45.618;5.130;2023-02-28T02:58:32;11.57;;;7.88;;
48727;SDS011;34527;45.618;5.130;2023-02-28T03:01:06;13.02;;;9.13;;
48727;SDS011;34527;45.618;5.130;2023-02-28T03:03:35;12.10;;;8.23;;
48727;SDS011;34527;45.618;5.130;2023-02-28T03:06:02;11.20;;;7.95;;
48727;SDS011;34527;45.618;5.130;2023-02-28T03:08:29;11.20;;;7.93;;
48727;SDS011;34527;45.618;5.130;2023-02-28T03:11:00;11.52;;;8.13;;
48727;SDS011;34527;45.618;5.130;2023-02-28T03:24:24;10.65;;;7.53;;
48727;SDS011;34527;45.618;5.130;2023-02-28T03:26:56;14.88;;;8.38;;
48727;SDS011;34527;45.618;5.130;2023-02-28T03:29:30;11.73;;;8.40;;
48727;SDS011;34527;45.618;5.130;2023-02-28T03:32:05;17.20;;;8.23;;
48727;SDS011;34527;45.618;5.130;2023-02-28T03:34:40;11.18;;;7.85;;
48727;SDS011;34527;45.618;5.130;2023-02-28T03:37:15;10.68;;;7.78;;
48727;SDS011;34527;45.618;5.130;2023-02-28T03:39:49;12.75;;;8.38;;
48727;SDS011;34527;45.618;5.130;2023-02-28T03:42:31;14.18;;;8.13;;
48727;SDS011;34527;45.618;5.130;2023-02-28T03:45:01;10.07;;;7.40;;
48727;SDS011;34527;45.618;5.130;2023-02-28T03:47:39;15.40;;;8.07;;
48727;SDS011;34527;45.618;5.130;2023-02-28T03:50:29;13.07;;;8.20;;
48727;SDS011;34527;45.618;5.130;2023-02-28T03:55:37;9.80;;;7.60;;
48727;SDS011;34527;45.618;5.130;2023-02-28T04:01:07;11.90;;;7.75;;
48727;SDS011;34527;45.618;5.130;2023-02-28T04:03:38;11.82;;;8.48;;
48727;SDS011;34527;45.618;5.130;2023-02-28T04:06:05;12.27;;;8.57;;
48727;SDS011;34527;45.618;5.130;2023-02-28T04:08:33;13.23;;;7.68;;
48727;SDS011;34527;45.618;5.130;2023-02-28T04:11:04;12.05;;;7.70;;
48727;SDS011;34527;45.618;5.130;2023-02-28T04:13:38;9.88;;;7.47;;
48727;SDS011;34527;45.618;5.130;2023-02-28T04:16:07;11.35;;;8.13;;
48727;SDS011;34527;45.618;5.130;2023-02-28T04:18:40;11.45;;;8.02;;
48727;SDS011;34527;45.618;5.130;2023-02-28T04:21:08;11.93;;;8.10;;
48727;SDS011;34527;45.618;5.130;2023-02-28T04:23:34;10.10;;;7.40;;
48727;SDS011;34527;45.618;5.130;2023-02-28T04:26:00;10.45;;;7.63;;
48727;SDS011;34527;45.618;5.130;2023-02-28T04:28:25;9.10;;;7.40;;
48727;SDS011;34527;45.618;5.130;2023-02-28T04:30:54;11.95;;;7.43;;
48727;SDS011;34527;45.618;5.130;2023-02-28T04:33:24;11.30;;;8.00;;
48727;SDS011;34527;45.618;5.130;2023-02-28T04:35:57;12.95;;;7.80;;
48727;SDS011;34527;45.618;5.130;2023-02-28T04:38:27;11.80;;;8.27;;
48727;SDS011;34527;45.618;5.130;2023-02-28T04:40:56;11.13;;;7.93;;
48727;SDS011;34527;45.618;5.130;2023-02-28T04:43:22;12.80;;;8.77;;
48727;SDS011;34527;45.618;5.130;2023-02-28T04:45:48;12.07;;;7.53;;
48727;SDS011;34527;45.618;5.130;2023-02-28T04:48:13;10.23;;;7.47;;
48727;SDS011;34527;45.618;5.130;2023-02-28T04:50:39;11.45;;;8.02;;
48727;SDS011;34527;45.618;5.130;2023-02-28T04:53:04;12.63;;;8.20;;
48727;SDS011;34527;45.618;5.130;2023-02-28T04:55:30;11.98;;;8.25;;
48727;SDS011;34527;45.618;5.130;2023-02-28T04:57:55;11.38;;;7.78;;
48727;SDS011;34527;45.618;5.130;2023-02-28T05:00:21;11.48;;;7.07;;
48727;SDS011;34527;45.618;5.130;2023-02-28T05:02:47;10.15;;;7.55;;
48727;SDS011;34527;45.618;5.130;2023-02-28T05:05:12;13.82;;;8.02;;
48727;SDS011;34527;45.618;5.130;2023-02-28T05:07:43;11.13;;;7.90;;
48727;SDS011;34527;45.618;5.130;2023-02-28T05:10:10;11.57;;;7.65;;
48727;SDS011;34527;45.618;5.130;2023-02-28T05:12:36;9.23;;;7.25;;
48727;SDS011;34527;45.618;5.130;2023-02-28T05:15:02;9.05;;;7.43;;
48727;SDS011;34527;45.618;5.130;2023-02-28T05:17:29;11.32;;;7.95;;
48727;SDS011;34527;45.618;5.130;2023-02-28T05:19:55;10.45;;;7.55;;
48727;SDS011;34527;45.618;5.130;2023-02-28T05:22:21;10.27;;;7.75;;
48727;SDS011;34527;45.618;5.130;2023-02-28T05:24:47;9.15;;;7.38;;
48727;SDS011;34527;45.618;5.130;2023-02-28T05:27:12;11.80;;;8.00;;
48727;SDS011;34527;45.618;5.130;2023-02-28T05:29:38;8.95;;;7.68;;
48727;SDS011;34527;45.618;5.130;2023-02-28T05:32:10;11.05;;;7.38;;
48727;SDS011;34527;45.618;5.130;2023-02-28T05:34:40;10.80;;;7.97;;
48727;SDS011;34527;45.618;5.130;2023-02-28T05:37:06;11.65;;;8.20;;
48727;SDS011;34527;45.618;5.130;2023-02-28T05:39:37;12.38;;;7.55;;
48727;SDS011;34527;45.618;5.130;2023-02-28T05:42:03;12.48;;;7.50;;
48727;SDS011;34527;45.618;5.130;2023-02-28T05:44:29;9.95;;;7.53;;
48727;SDS011;34527;45.618;5.130;2023-02-28T05:46:55;11.13;;;8.00;;
48727;SDS011;34527;45.618;5.130;2023-02-28T05:49:21;11.30;;;7.60;;
48727;SDS011;34527;45.618;5.130;2023-02-28T05:51:46;12.02;;;7.60;;
48727;SDS011;34527;45.618;5.130;2023-02-28T05:54:12;9.15;;;7.25;;
48727;SDS011;34527;45.618;5.130;2023-02-28T05:56:38;9.98;;;7.35;;
48727;SDS011;34527;45.618;5.130;2023-02-28T05:59:09;9.02;;;7.85;;
48727;SDS011;34527;45.618;5.130;2023-02-28T06:01:37;9.43;;;7.35;;
48727;SDS011;34527;45.618;5.130;2023-02-28T06:04:05;10.10;;;7.50;;
48727;SDS011;34527;45.618;5.130;2023-02-28T06:06:32;13.95;;;8.30;;
48727;SDS011;34527;45.618;5.130;2023-02-28T06:08:59;10.63;;;7.95;;
48727;SDS011;34527;45.618;5.130;2023-02-28T06:11:25;9.73;;;7.60;;
48727;SDS011;34527;45.618;5.130;2023-02-28T06:13:58;14.40;;;8.25;;
48727;SDS011;34527;45.618;5.130;2023-02-28T06:16:25;10.13;;;7.75;;
48727;SDS011;34527;45.618;5.130;2023-02-28T06:18:52;11.30;;;8.02;;
48727;SDS011;34527;45.618;5.130;2023-02-28T06:21:20;11.13;;;7.82;;
48727;SDS011;34527;45.618;5.130;2023-02-28T06:23:46;10.40;;;7.90;;
48727;SDS011;34527;45.618;5.130;2023-02-28T06:26:12;13.00;;;7.65;;
48727;SDS011;34527;45.618;5.130;2023-02-28T06:28:37;10.07;;;7.55;;
48727;SDS011;34527;45.618;5.130;2023-02-28T06:31:07;12.38;;;7.75;;
48727;SDS011;34527;45.618;5.130;2023-02-28T06:33:37;11.15;;;7.57;;
48727;SDS011;34527;45.618;5.130;2023-02-28T06:36:04;10.27;;;7.53;;
48727;SDS011;34527;45.618;5.130;2023-02-28T06:38:30;9.75;;;7.78;;
48727;SDS011;34527;45.618;5.130;2023-02-28T06:40:57;10.65;;;8.00;;
48727;SDS011;34527;45.618;5.130;2023-02-28T06:43:24;9.75;;;7.30;;
48727;SDS011;34527;45.618;5.130;2023-02-28T06:45:50;9.50;;;7.20;;
48727;SDS011;34527;45.618;5.130;2023-02-28T06:48:18;9.55;;;7.15;;
48727;SDS011;34527;45.618;5.130;2023-02-28T06:50:44;11.50;;;7.82;;
48727;SDS011;34527;45.618;5.130;2023-02-28T06:53:10;11.57;;;8.23;;
48727;SDS011;34527;45.618;5.130;2023-02-28T06:55:37;10.68;;;7.80;;
48727;SDS011;34527;45.618;5.130;2023-02-28T06:58:03;10.68;;;8.35;;
48727;SDS011;34527;45.618;5.130;2023-02-28T07:00:39;14.68;;;7.50;;
48727;SDS011;34527;45.618;5.130;2023-02-28T07:03:08;10.60;;;7.35;;
48727;SDS011;34527;45.618;5.130;2023-02-28T07:05:35;11.00;;;7.88;;
48727;SDS011;34527;45.618;5.130;2023-02-28T07:08:02;11.82;;;8.07;;
48727;SDS011;34527;45.618;5.130;2023-02-28T07:10:28;12.40;;;7.57;;
48727;SDS011;34527;45.618;5.130;2023-02-28T07:12:54;10.60;;;7.85;;
48727;SDS011;34527;45.618;5.130;2023-02-28T07:15:19;11.73;;;7.90;;
48727;SDS011;34527;45.618;5.130;2023-02-28T07:17:45;14.27;;;8.38;;
48727;SDS011;34527;45.618;5.130;2023-02-28T07:20:11;12.45;;;7.03;;
48727;SDS011;34527;45.618;5.130;2023-02-28T07:22:37;11.93;;;7.15;;
48727;SDS011;34527;45.618;5.130;2023-02-28T07:25:03;10.48;;;7.57;;
48727;SDS011;34527;45.618;5.130;2023-02-28T07:27:29;8.95;;;6.75;;
48727;SDS011;34527;45.618;5.130;2023-02-28T07:29:55;11.55;;;7.18;;
48727;SDS011;34527;45.618;5.130;2023-02-28T07:32:21;13.45;;;7.38;;
48727;SDS011;34527;45.618;5.130;2023-02-28T07:34:47;9.40;;;7.03;;
48727;SDS011;34527;45.618;5.130;2023-02-28T07:37:13;12.27;;;7.25;;
48727;SDS011;34527;45.618;5.130;2023-02-28T07:39:39;10.48;;;7.18;;
48727;SDS011;34527;45.618;5.130;2023-02-28T07:42:07;9.70;;;7.05;;
48727;SDS011;34527;45.618;5.130;2023-02-28T07:44:35;11.02;;;8.13;;
48727;SDS011;34527;45.618;5.130;2023-02-28T07:47:05;8.88;;;6.68;;
48727;SDS011;34527;45.618;5.130;2023-02-28T07:49:35;10.40;;;6.97;;
48727;SDS011;34527;45.618;5.130;2023-02-28T07:52:02;10.05;;;6.80;;
48727;SDS011;34527;45.618;5.130;2023-02-28T07:54:28;11.68;;;7.70;;
48727;SDS011;34527;45.618;5.130;2023-02-28T07:56:54;10.18;;;7.53;;
48727;SDS011;34527;45.618;5.130;2023-02-28T07:59:19;10.48;;;7.28;;
48727;SDS011;34527;45.618;5.130;2023-02-28T08:01:45;11.00;;;7.03;;
48727;SDS011;34527;45.618;5.130;2023-02-28T08:04:11;8.77;;;7.45;;
48727;SDS011;34527;45.618;5.130;2023-02-28T08:06:36;9.55;;;6.90;;
48727;SDS011;34527;45.618;5.130;2023-02-28T08:09:02;11.13;;;7.40;;
48727;SDS011;34527;45.618;5.130;2023-02-28T08:11:27;9.27;;;6.80;;
48727;SDS011;34527;45.618;5.130;2023-02-28T08:13:54;9.77;;;6.57;;
48727;SDS011;34527;45.618;5.130;2023-02-28T08:16:20;9.38;;;6.50;;
48727;SDS011;34527;45.618;5.130;2023-02-28T08:18:49;8.73;;;6.53;;
48727;SDS011;34527;45.618;5.130;2023-02-28T08:21:16;9.55;;;6.95;;
48727;SDS011;34527;45.618;5.130;2023-02-28T08:23:43;8.98;;;6.30;;
48727;SDS011;34527;45.618;5.130;2023-02-28T08:26:09;9.95;;;7.00;;
48727;SDS011;34527;45.618;5.130;2023-02-28T08:28:34;8.63;;;7.13;;
48727;SDS011;34527;45.618;5.130;2023-02-28T08:31:00;8.75;;;6.32;;
48727;SDS011;34527;45.618;5.130;2023-02-28T08:33:26;11.68;;;6.88;;
48727;SDS011;34527;45.618;5.130;2023-02-28T08:35:53;10.60;;;7.35;;
48727;SDS011;34527;45.618;5.130;2023-02-28T08:38:20;10.25;;;7.32;;
48727;SDS011;34527;45.618;5.130;2023-02-28T08:40:45;11.27;;;6.80;;
48727;SDS011;34527;45.618;5.130;2023-02-28T08:43:11;9.40;;;6.93;;
48727;SDS011;34527;45.618;5.130;2023-02-28T08:45:36;10.85;;;6.57;;
48727;SDS011;34527;45.618;5.130;2023-02-28T08:48:02;11.02;;;7.82;;
48727;SDS011;34527;45.618;5.130;2023-02-28T08:50:28;8.45;;;6.90;;
48727;SDS011;34527;45.618;5.130;2023-02-28T08:52:54;11.77;;;6.82;;
48727;SDS011;34527;45.618;5.130;2023-02-28T08:55:19;10.95;;;7.28;;
48727;SDS011;34527;45.618;5.130;2023-02-28T08:57:45;12.50;;;6.70;;
48727;SDS011;34527;45.618;5.130;2023-02-28T09:00:11;9.88;;;6.80;;
48727;SDS011;34527;45.618;5.130;2023-02-28T09:02:39;8.32;;;6.80;;
48727;SDS011;34527;45.618;5.130;2023-02-28T09:05:05;9.98;;;7.07;;
48727;SDS011;34527;45.618;5.130;2023-02-28T09:07:31;10.18;;;6.10;;
48727;SDS011;34527;45.618;5.130;2023-02-28T09:09:57;8.00;;;6.30;;
48727;SDS011;34527;45.618;5.130;2023-02-28T09:12:26;9.95;;;7.07;;
48727;SDS011;34527;45.618;5.130;2023-02-28T09:14:52;8.52;;;6.70;;
48727;SDS011;34527;45.618;5.130;2023-02-28T09:17:19;7.88;;;6.85;;
48727;SDS011;34527;45.618;5.130;2023-02-28T09:19:45;9.13;;;6.35;;
48727;SDS011;34527;45.618;5.130;2023-02-28T09:22:14;9.20;;;6.90;;
48727;SDS011;34527;45.618;5.130;2023-02-28T09:24:39;10.85;;;5.97;;
48727;SDS011;34527;45.618;5.130;2023-02-28T09:27:05;8.15;;;6.38;;
48727;SDS011;34527;45.618;5.130;2023-02-28T09:29:31;11.45;;;6.07;;
48727;SDS011;34527;45.618;5.130;2023-02-28T09:31:58;10.60;;;6.78;;
48727;SDS011;34527;45.618;5.130;2023-02-28T09:34:27;8.60;;;6.60;;
48727;SDS011;34527;45.618;5.130;2023-02-28T09:36:55;10.20;;;6.10;;
48727;SDS011;34527;45.618;5.130;2023-02-28T09:39:21;10.43;;;7.00;;
48727;SDS011;34527;45.618;5.130;2023-02-28T09:41:49;9.35;;;6.85;;
48727;SDS011;34527;45.618;5.130;2023-02-28T09:44:22;9.10;;;7.20;;
48727;SDS011;34527;45.618;5.130;2023-02-28T09:46:56;9.20;;;6.57;;
48727;SDS011;34527;45.618;5.130;2023-02-28T09:49:28;9.38;;;6.43;;
48727;SDS011;34527;45.618;5.130;2023-02-28T09:52:07;12.20;;;7.38;;
48727;SDS011;34527;45.618;5.130;2023-02-28T09:54:45;10.88;;;6.47;;
48727;SDS011;34527;45.618;5.130;2023-02-28T09:57:19;8.68;;;6.07;;
48727;SDS011;34527;45.618;5.130;2023-02-28T10:00:14;7.43;;;5.80;;
48727;SDS011;34527;45.618;5.130;2023-02-28T10:05:20;8.73;;;5.95;;
48727;SDS011;34527;45.618;5.130;2023-02-28T10:13:20;8.82;;;6.38;;
48727;SDS011;34527;45.618;5.130;2023-02-28T10:15:50;9.10;;;5.88;;
48727;SDS011;34527;45.618;5.130;2023-02-28T10:18:21;9.05;;;6.95;;
48727;SDS011;34527;45.618;5.130;2023-02-28T10:20:50;7.13;;;6.25;;
48727;SDS011;34527;45.618;5.130;2023-02-28T10:23:25;8.13;;;6.30;;
48727;SDS011;34527;45.618;5.130;2023-02-28T10:26:00;8.35;;;6.65;;
48727;SDS011;34527;45.618;5.130;2023-02-28T10:28:33;9.50;;;6.65;;
48727;SDS011;34527;45.618;5.130;2023-02-28T10:30:59;7.82;;;6.57;;
48727;SDS011;34527;45.618;5.130;2023-02-28T10:35:54;8.93;;;6.80;;
48727;SDS011;34527;45.618;5.130;2023-02-28T10:38:21;8.50;;;6.30;;
48727;SDS011;34527;45.618;5.130;2023-02-28T10:40:50;7.95;;;6.47;;
48727;SDS011;34527;45.618;5.130;2023-02-28T10:50:57;10.32;;;6.88;;
48727;SDS011;34527;45.618;5.130;2023-02-28T11:01:19;13.38;;;6.75;;
48727;SDS011;34527;45.618;5.130;2023-02-28T11:09:35;10.63;;;7.70;;
48727;SDS011;34527;45.618;5.130;2023-02-28T11:12:06;8.85;;;7.38;;
48727;SDS011;34527;45.618;5.130;2023-02-28T11:14:40;7.60;;;6.80;;
48727;SDS011;34527;45.618;5.130;2023-02-28T11:17:14;10.45;;;7.65;;
48727;SDS011;34527;45.618;5.130;2023-02-28T11:19:47;12.02;;;7.50;;
48727;SDS011;34527;45.618;5.130;2023-02-28T11:22:17;9.10;;;7.28;;
48727;SDS011;34527;45.618;5.130;2023-02-28T11:24:52;10.93;;;7.88;;
48727;SDS011;34527;45.618;5.130;2023-02-28T11:29:55;12.13;;;8.30;;
48727;SDS011;34527;45.618;5.130;2023-02-28T11:32:25;12.05;;;8.48;;
48727;SDS011;34527;45.618;5.130;2023-02-28T11:35:14;11.38;;;8.13;;
48727;SDS011;34527;45.618;5.130;2023-02-28T11:37:56;14.32;;;8.82;;
48727;SDS011;34527;45.618;5.130;2023-02-28T11:40:28;9.88;;;7.82;;
48727;SDS011;34527;45.618;5.130;2023-02-28T11:46:04;9.02;;;7.55;;
48727;SDS011;34527;45.618;5.130;2023-02-28T11:51:09;10.95;;;8.13;;
48727;SDS011;34527;45.618;5.130;2023-02-28T11:53:56;10.82;;;8.55;;
48727;SDS011;34527;45.618;5.130;2023-02-28T11:56:27;15.30;;;9.05;;
48727;SDS011;34527;45.618;5.130;2023-02-28T12:05:05;13.23;;;8.48;;
48727;SDS011;34527;45.618;5.130;2023-02-28T12:07:47;10.68;;;8.45;;
48727;SDS011;34527;45.618;5.130;2023-02-28T12:10:23;13.23;;;9.48;;
48727;SDS011;34527;45.618;5.130;2023-02-28T12:28:54;10.68;;;8.85;;
48727;SDS011;34527;45.618;5.130;2023-02-28T12:31:41;9.57;;;8.20;;
48727;SDS011;34527;45.618;5.130;2023-02-28T12:34:19;14.00;;;8.82;;
48727;SDS011;34527;45.618;5.130;2023-02-28T12:36:49;10.95;;;8.75;;
48727;SDS011;34527;45.618;5.130;2023-02-28T12:39:26;12.40;;;9.13;;
48727;SDS011;34527;45.618;5.130;2023-02-28T12:42:17;10.38;;;8.85;;
48727;SDS011;34527;45.618;5.130;2023-02-28T12:47:39;13.50;;;9.15;;
48727;SDS011;34527;45.618;5.130;2023-02-28T12:50:08;11.60;;;9.63;;
48727;SDS011;34527;45.618;5.130;2023-02-28T12:52:41;13.77;;;9.30;;
48727;SDS011;34527;45.618;5.130;2023-02-28T12:55:18;13.70;;;8.52;;
48727;SDS011;34527;45.618;5.130;2023-02-28T13:09:33;12.85;;;9.43;;
48727;SDS011;34527;45.618;5.130;2023-02-28T13:11:58;13.50;;;8.82;;
48727;SDS011;34527;45.618;5.130;2023-02-28T13:14:26;11.02;;;9.60;;
48727;SDS011;34527;45.618;5.130;2023-02-28T13:19:35;13.05;;;9.95;;
48727;SDS011;34527;45.618;5.130;2023-02-28T13:22:04;13.13;;;9.85;;
48727;SDS011;34527;45.618;5.130;2023-02-28T13:29:42;16.98;;;9.90;;
48727;SDS011;34527;45.618;5.130;2023-02-28T13:34:35;11.55;;;9.80;;
48727;SDS011;34527;45.618;5.130;2023-02-28T13:42:51;11.73;;;9.73;;
48727;SDS011;34527;45.618;5.130;2023-02-28T13:47:54;14.85;;;10.07;;
48727;SDS011;34527;45.618;5.130;2023-02-28T13:50:22;11.18;;;9.90;;
48727;SDS011;34527;45.618;5.130;2023-02-28T14:01:18;12.85;;;10.15;;
48727;SDS011;34527;45.618;5.130;2023-02-28T14:06:39;14.32;;;9.80;;
48727;SDS011;34527;45.618;5.130;2023-02-28T14:09:29;16.67;;;10.68;;
48727;SDS011;34527;45.618;5.130;2023-02-28T14:15:03;14.27;;;10.55;;
48727;SDS011;34527;45.618;5.130;2023-02-28T14:17:53;13.02;;;10.43;;
48727;SDS011;34527;45.618;5.130;2023-02-28T14:20:21;13.02;;;10.40;;
48727;SDS011;34527;45.618;5.130;2023-02-28T14:25:44;12.63;;;9.73;;
48727;SDS011;34527;45.618;5.130;2023-02-28T14:28:41;14.00;;;10.20;;
48727;SDS011;34527;45.618;5.130;2023-02-28T14:31:23;12.93;;;10.90;;
48727;SDS011;34527;45.618;5.130;2023-02-28T14:36:44;13.90;;;10.38;;
48727;SDS011;34527;45.618;5.130;2023-02-28T14:41:44;13.02;;;10.07;;
48727;SDS011;34527;45.618;5.130;2023-02-28T14:46:39;13.07;;;10.52;;
48727;SDS011;34527;45.618;5.130;2023-02-28T14:49:09;13.75;;;10.57;;
48727;SDS011;34527;45.618;5.130;2023-02-28T14:51:40;13.93;;;11.02;;
48727;SDS011;34527;45.618;5.130;2023-02-28T14:54:05;13.93;;;10.73;;
48727;SDS011;34527;45.618;5.130;2023-02-28T14:56:35;14.20;;;11.00;;
48727;SDS011;34527;45.618;5.130;2023-02-28T14:59:04;17.80;;;11.25;;
48727;SDS011;34527;45.618;5.130;2023-02-28T15:01:45;13.38;;;10.48;;
48727;SDS011;34527;45.618;5.130;2023-02-28T15:04:11;13.98;;;11.27;;
48727;SDS011;34527;45.618;5.130;2023-02-28T15:09:40;14.38;;;11.20;;
48727;SDS011;34527;45.618;5.130;2023-02-28T15:12:06;14.63;;;10.80;;
48727;SDS011;34527;45.618;5.130;2023-02-28T15:14:36;14.13;;;11.50;;
48727;SDS011;34527;45.618;5.130;2023-02-28T15:17:05;16.17;;;10.73;;
48727;SDS011;34527;45.618;5.130;2023-02-28T15:19:34;14.18;;;11.68;;
48727;SDS011;34527;45.618;5.130;2023-02-28T15:22:05;16.73;;;11.43;;
48727;SDS011;34527;45.618;5.130;2023-02-28T15:24:37;19.00;;;11.10;;
48727;SDS011;34527;45.618;5.130;2023-02-28T15:27:20;14.85;;;11.85;;
48727;SDS011;34527;45.618;5.130;2023-02-28T15:29:49;15.63;;;12.70;;
48727;SDS011;34527;45.618;5.130;2023-02-28T15:32:23;16.27;;;11.43;;
48727;SDS011;34527;45.618;5.130;2023-02-28T15:34:54;15.35;;;10.93;;
48727;SDS011;34527;45.618;5.130;2023-02-28T15:37:33;16.70;;;12.52;;
48727;SDS011;34527;45.618;5.130;2023-02-28T15:40:18;15.38;;;12.35;;
48727;SDS011;34527;45.618;5.130;2023-02-28T15:45:46;13.13;;;10.98;;
48727;SDS011;34527;45.618;5.130;2023-02-28T15:50:47;14.60;;;11.55;;
48727;SDS011;34527;45.618;5.130;2023-02-28T15:53:19;15.85;;;11.48;;
48727;SDS011;34527;45.618;5.130;2023-02-28T15:58:44;17.58;;;12.00;;
48727;SDS011;34527;45.618;5.130;2023-02-28T16:01:17;16.83;;;11.80;;
48727;SDS011;34527;45.618;5.130;2023-02-28T16:03:48;16.30;;;12.23;;
48727;SDS011;34527;45.618;5.130;2023-02-28T16:08:50;16.50;;;11.75;;
48727;SDS011;34527;45.618;5.130;2023-02-28T16:11:16;15.57;;;11.75;;
48727;SDS011;34527;45.618;5.130;2023-02-28T16:13:42;16.50;;;12.20;;
48727;SDS011;34527;45.618;5.130;2023-02-28T16:16:07;14.10;;;11.43;;
48727;SDS011;34527;45.618;5.130;2023-02-28T16:18:33;15.77;;;11.98;;
48727;SDS011;34527;45.618;5.130;2023-02-28T16:20:59;14.13;;;11.68;;
48727;SDS011;34527;45.618;5.130;2023-02-28T16:23:24;15.70;;;11.63;;
48727;SDS011;34527;45.618;5.130;2023-02-28T16:25:50;16.10;;;12.05;;
48727;SDS011;34527;45.618;5.130;2023-02-28T16:28:25;16.05;;;11.73;;
48727;SDS011;34527;45.618;5.130;2023-02-28T16:30:56;15.07;;;12.07;;
48727;SDS011;34527;45.618;5.130;2023-02-28T16:33:21;14.73;;;10.93;;
48727;SDS011;34527;45.618;5.130;2023-02-28T16:35:47;17.00;;;12.18;;
48727;SDS011;34527;45.618;5.130;2023-02-28T16:38:13;14.30;;;11.50;;
48727;SDS011;34527;45.618;5.130;2023-02-28T16:40:38;14.48;;;11.45;;
48727;SDS011;34527;45.618;5.130;2023-02-28T16:43:05;15.18;;;12.25;;
48727;SDS011;34527;45.618;5.130;2023-02-28T16:45:36;13.95;;;10.63;;
48727;SDS011;34527;45.618;5.130;2023-02-28T16:48:02;16.38;;;11.52;;
48727;SDS011;34527;45.618;5.130;2023-02-28T16:50:28;16.80;;;11.68;;
48727;SDS011;34527;45.618;5.130;2023-02-28T16:52:55;13.95;;;11.88;;
48727;SDS011;34527;45.618;5.130;2023-02-28T16:55:24;16.80;;;12.75;;
48727;SDS011;34527;45.618;5.130;2023-02-28T16:57:52;16.05;;;12.10;;
48727;SDS011;34527;45.618;5.130;2023-02-28T17:00:23;14.98;;;11.48;;
48727;SDS011;34527;45.618;5.130;2023-02-28T17:02:49;15.32;;;11.80;;
48727;SDS011;34527;45.618;5.130;2023-02-28T17:05:15;16.15;;;11.88;;
48727;SDS011;34527;45.618;5.130;2023-02-28T17:07:42;15.93;;;11.52;;
48727;SDS011;34527;45.618;5.130;2023-02-28T17:10:24;14.27;;;12.05;;
48727;SDS011;34527;45.618;5.130;2023-02-28T17:12:51;18.95;;;12.40;;
48727;SDS011;34527;45.618;5.130;2023-02-28T17:15:18;20.58;;;12.70;;
48727;SDS011;34527;45.618;5.130;2023-02-28T17:17:44;15.77;;;11.63;;
48727;SDS011;34527;45.618;5.130;2023-02-28T17:20:14;14.07;;;11.02;;
48727;SDS011;34527;45.618;5.130;2023-02-28T17:22:41;15.88;;;11.93;;
48727;SDS011;34527;45.618;5.130;2023-02-28T17:25:08;15.52;;;11.85;;
48727;SDS011;34527;45.618;5.130;2023-02-28T17:27:34;17.30;;;12.43;;
48727;SDS011;34527;45.618;5.130;2023-02-28T17:30:00;16.20;;;11.70;;
48727;SDS011;34527;45.618;5.130;2023-02-28T17:32:27;17.02;;;12.68;;
48727;SDS011;34527;45.618;5.130;2023-02-28T17:34:53;15.32;;;12.20;;
48727;SDS011;34527;45.618;5.130;2023-02-28T17:37:18;17.85;;;12.70;;
48727;SDS011;34527;45.618;5.130;2023-02-28T17:39:44;16.15;;;11.63;;
48727;SDS011;34527;45.618;5.130;2023-02-28T17:42:09;15.15;;;11.70;;
48727;SDS011;34527;45.618;5.130;2023-02-28T17:44:35;15.35;;;11.48;;